sensor_id;sensor_type;location;lat;lon;timestamp;P1;durP1;ratioP1;P2;durP2;ratioP2
55601;SDS011;59921;51.332;12.410;2023-03-01T00:01:25;9.90;;;7.18;;
55601;SDS011;59921;51.332;12.410;2023-03-01T00:03:53;9.30;;;6.97;;
55601;SDS011;59921;51.332;12.410;2023-03-01T00:06:22;9.20;;;7.10;;
55601;SDS011;59921;51.332;12.410;2023-03-01T00:08:48;9.85;;;7.40;;
55601;SDS011;59921;51.332;12.410;2023-03-01T00:11:15;11.27;;;7.57;;
55601;SDS011;59921;51.332;12.410;2023-03-01T00:13:42;10.15;;;7.57;;
55601;SDS011;59921;51.332;12.410;2023-03-01T00:16:10;9.80;;;7.35;;
55601;SDS011;59921;51.332;12.410;2023-03-01T00:18:38;9.88;;;7.32;;
55601;SDS011;59921;51.332;12.410;2023-03-01T00:21:04;9.23;;;7.32;;
55601;SDS011;59921;51.332;12.410;2023-03-01T00:23:30;9.60;;;7.20;;
55601;SDS011;59921;51.332;12.410;2023-03-01T00:25:57;10.55;;;7.45;;
55601;SDS011;59921;51.332;12.410;2023-03-01T00:28:22;9.73;;;6.65;;
55601;SDS011;59921;51.332;12.410;2023-03-01T00:30:48;9.70;;;7.15;;
55601;SDS011;59921;51.332;12.410;2023-03-01T00:33:14;9.77;;;7.28;;
55601;SDS011;59921;51.332;12.410;2023-03-01T00:35:39;8.85;;;6.65;;
55601;SDS011;59921;51.332;12.410;2023-03-01T00:38:05;10.40;;;7.75;;
55601;SDS011;59921;51.332;12.410;2023-03-01T00:40:32;8.57;;;6.82;;
55601;SDS011;59921;51.332;12.410;2023-03-01T00:42:59;8.73;;;6.57;;
55601;SDS011;59921;51.332;12.410;2023-03-01T00:45:25;9.32;;;7.05;;
55601;SDS011;59921;51.332;12.410;2023-03-01T00:47:50;8.05;;;6.47;;
55601;SDS011;59921;51.332;12.410;2023-03-01T00:50:16;8.98;;;6.95;;
55601;SDS011;59921;51.332;12.410;2023-03-01T00:52:43;8.52;;;6.47;;
55601;SDS011;59921;51.332;12.410;2023-03-01T00:55:09;10.82;;;7.82;;
55601;SDS011;59921;51.332;12.410;2023-03-01T00:57:35;9.00;;;6.90;;
55601;SDS011;59921;51.332;12.410;2023-03-01T01:00:00;9.40;;;6.85;;
55601;SDS011;59921;51.332;12.410;2023-03-01T01:02:26;9.40;;;7.38;;
55601;SDS011;59921;51.332;12.410;2023-03-01T01:04:52;9.93;;;7.00;;
55601;SDS011;59921;51.332;12.410;2023-03-01T01:07:18;9.77;;;7.13;;
55601;SDS011;59921;51.332;12.410;2023-03-01T01:09:45;9.65;;;6.88;;
55601;SDS011;59921;51.332;12.410;2023-03-01T01:12:11;8.85;;;6.97;;
55601;SDS011;59921;51.332;12.410;2023-03-01T01:14:37;8.88;;;6.65;;
55601;SDS011;59921;51.332;12.410;2023-03-01T01:17:03;8.88;;;6.80;;
55601;SDS011;59921;51.332;12.410;2023-03-01T01:19:29;8.68;;;6.53;;
55601;SDS011;59921;51.332;12.410;2023-03-01T01:21:55;8.30;;;6.43;;
55601;SDS011;59921;51.332;12.410;2023-03-01T01:24:21;9.45;;;6.50;;
55601;SDS011;59921;51.332;12.410;2023-03-01T01:26:46;8.32;;;6.70;;
55601;SDS011;59921;51.332;12.410;2023-03-01T01:29:12;9.43;;;7.03;;
55601;SDS011;59921;51.332;12.410;2023-03-01T01:31:39;8.57;;;7.03;;
55601;SDS011;59921;51.332;12.410;2023-03-01T01:34:07;8.48;;;6.68;;
55601;SDS011;59921;51.332;12.410;2023-03-01T01:36:37;8.63;;;6.13;;
55601;SDS011;59921;51.332;12.410;2023-03-01T01:39:03;8.60;;;6.20;;
55601;SDS011;59921;51.332;12.410;2023-03-01T01:41:29;8.82;;;6.88;;
55601;SDS011;59921;51.332;12.410;2023-03-01T01:46:55;9.23;;;6.80;;
55601;SDS011;59921;51.332;12.410;2023-03-01T01:49:40;9.35;;;6.63;;
55601;SDS011;59921;51.332;12.410;2023-03-01T01:52:11;8.32;;;6.38;;
55601;SDS011;59921;51.332;12.410;2023-03-01T01:57:07;9.02;;;6.60;;
55601;SDS011;59921;51.332;12.410;2023-03-01T01:59:37;9.85;;;6.97;;
55601;SDS011;59921;51.332;12.410;2023-03-01T02:02:05;8.57;;;6.47;;
55601;SDS011;59921;51.332;12.410;2023-03-01T02:04:31;8.80;;;6.68;;
55601;SDS011;59921;51.332;12.410;2023-03-01T02:07:06;7.95;;;6.03;;
55601;SDS011;59921;51.332;12.410;2023-03-01T02:09:41;8.45;;;6.15;;
55601;SDS011;59921;51.332;12.410;2023-03-01T02:12:10;8.43;;;6.75;;
55601;SDS011;59921;51.332;12.410;2023-03-01T02:14:36;8.20;;;6.13;;
55601;SDS011;59921;51.332;12.410;2023-03-01T02:17:01;8.15;;;6.18;;
55601;SDS011;59921;51.332;12.410;2023-03-01T02:25:00;8.60;;;6.30;;
55601;SDS011;59921;51.332;12.410;2023-03-01T02:30:32;7.80;;;6.07;;
55601;SDS011;59921;51.332;12.410;2023-03-01T02:32:58;8.55;;;6.07;;
55601;SDS011;59921;51.332;12.410;2023-03-01T02:35:37;7.97;;;6.05;;
55601;SDS011;59921;51.332;12.410;2023-03-01T02:38:06;8.55;;;6.13;;
55601;SDS011;59921;51.332;12.410;2023-03-01T02:40:33;8.57;;;6.32;;
55601;SDS011;59921;51.332;12.410;2023-03-01T02:43:02;8.50;;;6.35;;
55601;SDS011;59921;51.332;12.410;2023-03-01T02:45:31;8.02;;;6.15;;
55601;SDS011;59921;51.332;12.410;2023-03-01T02:47:57;8.75;;;6.35;;
55601;SDS011;59921;51.332;12.410;2023-03-01T02:50:25;8.57;;;6.40;;
55601;SDS011;59921;51.332;12.410;2023-03-01T02:53:16;8.57;;;6.28;;
55601;SDS011;59921;51.332;12.410;2023-03-01T02:56:11;8.80;;;6.43;;
55601;SDS011;59921;51.332;12.410;2023-03-01T02:58:39;8.98;;;6.75;;
55601;SDS011;59921;51.332;12.410;2023-03-01T03:01:14;8.18;;;6.22;;
55601;SDS011;59921;51.332;12.410;2023-03-01T03:03:41;9.00;;;6.32;;
55601;SDS011;59921;51.332;12.410;2023-03-01T03:06:07;8.18;;;5.80;;
55601;SDS011;59921;51.332;12.410;2023-03-01T03:08:33;9.27;;;6.72;;
55601;SDS011;59921;51.332;12.410;2023-03-01T03:10:58;9.13;;;6.60;;
55601;SDS011;59921;51.332;12.410;2023-03-01T03:13:24;8.52;;;6.00;;
55601;SDS011;59921;51.332;12.410;2023-03-01T03:15:56;8.93;;;6.88;;
55601;SDS011;59921;51.332;12.410;2023-03-01T03:18:22;8.23;;;6.13;;
55601;SDS011;59921;51.332;12.410;2023-03-01T03:20:51;8.35;;;6.10;;
55601;SDS011;59921;51.332;12.410;2023-03-01T03:23:19;8.40;;;6.25;;
55601;SDS011;59921;51.332;12.410;2023-03-01T03:25:48;8.23;;;6.18;;
55601;SDS011;59921;51.332;12.410;2023-03-01T03:28:14;8.55;;;6.40;;
55601;SDS011;59921;51.332;12.410;2023-03-01T03:30:41;8.55;;;6.05;;
55601;SDS011;59921;51.332;12.410;2023-03-01T03:33:07;8.02;;;6.18;;
55601;SDS011;59921;51.332;12.410;2023-03-01T03:35:39;8.18;;;6.00;;
55601;SDS011;59921;51.332;12.410;2023-03-01T03:38:08;8.18;;;5.68;;
55601;SDS011;59921;51.332;12.410;2023-03-01T03:40:42;8.40;;;6.13;;
55601;SDS011;59921;51.332;12.410;2023-03-01T03:43:13;9.05;;;6.28;;
55601;SDS011;59921;51.332;12.410;2023-03-01T03:45:41;8.15;;;6.20;;
55601;SDS011;59921;51.332;12.410;2023-03-01T03:48:08;8.38;;;6.10;;
55601;SDS011;59921;51.332;12.410;2023-03-01T03:50:35;7.68;;;5.90;;
55601;SDS011;59921;51.332;12.410;2023-03-01T03:53:02;8.05;;;6.03;;
55601;SDS011;59921;51.332;12.410;2023-03-01T03:55:30;8.38;;;6.30;;
55601;SDS011;59921;51.332;12.410;2023-03-01T03:57:59;8.80;;;6.18;;
55601;SDS011;59921;51.332;12.410;2023-03-01T04:00:32;7.63;;;5.70;;
55601;SDS011;59921;51.332;12.410;2023-03-01T04:02:58;8.18;;;5.97;;
55601;SDS011;59921;51.332;12.410;2023-03-01T04:05:24;8.57;;;6.18;;
55601;SDS011;59921;51.332;12.410;2023-03-01T04:07:50;7.85;;;5.93;;
55601;SDS011;59921;51.332;12.410;2023-03-01T04:10:29;7.90;;;5.47;;
55601;SDS011;59921;51.332;12.410;2023-03-01T04:12:56;7.70;;;5.75;;
55601;SDS011;59921;51.332;12.410;2023-03-01T04:15:22;8.13;;;5.80;;
55601;SDS011;59921;51.332;12.410;2023-03-01T04:17:50;7.70;;;5.78;;
55601;SDS011;59921;51.332;12.410;2023-03-01T04:20:18;8.23;;;5.90;;
55601;SDS011;59921;51.332;12.410;2023-03-01T04:23:00;7.53;;;5.72;;
55601;SDS011;59921;51.332;12.410;2023-03-01T04:28:23;9.15;;;5.85;;
55601;SDS011;59921;51.332;12.410;2023-03-01T04:30:51;7.18;;;5.78;;
55601;SDS011;59921;51.332;12.410;2023-03-01T04:33:17;7.30;;;5.65;;
55601;SDS011;59921;51.332;12.410;2023-03-01T04:35:43;7.90;;;5.70;;
55601;SDS011;59921;51.332;12.410;2023-03-01T04:38:09;8.10;;;5.72;;
55601;SDS011;59921;51.332;12.410;2023-03-01T04:40:34;8.27;;;5.97;;
55601;SDS011;59921;51.332;12.410;2023-03-01T04:43:00;7.47;;;5.63;;
55601;SDS011;59921;51.332;12.410;2023-03-01T04:45:27;7.75;;;5.63;;
55601;SDS011;59921;51.332;12.410;2023-03-01T04:47:52;7.53;;;5.60;;
55601;SDS011;59921;51.332;12.410;2023-03-01T04:50:18;7.93;;;5.80;;
55601;SDS011;59921;51.332;12.410;2023-03-01T04:52:49;7.50;;;5.68;;
55601;SDS011;59921;51.332;12.410;2023-03-01T04:55:14;8.35;;;5.72;;
55601;SDS011;59921;51.332;12.410;2023-03-01T04:57:40;7.07;;;5.15;;
55601;SDS011;59921;51.332;12.410;2023-03-01T05:00:07;7.03;;;5.40;;
55601;SDS011;59921;51.332;12.410;2023-03-01T05:02:57;7.38;;;5.55;;
55601;SDS011;59921;51.332;12.410;2023-03-01T05:05:32;7.47;;;5.22;;
55601;SDS011;59921;51.332;12.410;2023-03-01T05:08:05;7.50;;;5.30;;
55601;SDS011;59921;51.332;12.410;2023-03-01T05:10:32;7.53;;;5.55;;
55601;SDS011;59921;51.332;12.410;2023-03-01T05:13:00;8.55;;;5.72;;
55601;SDS011;59921;51.332;12.410;2023-03-01T05:15:27;7.20;;;5.13;;
55601;SDS011;59921;51.332;12.410;2023-03-01T05:17:54;7.00;;;5.55;;
55601;SDS011;59921;51.332;12.410;2023-03-01T05:20:23;7.07;;;5.60;;
55601;SDS011;59921;51.332;12.410;2023-03-01T05:22:49;8.18;;;5.63;;
55601;SDS011;59921;51.332;12.410;2023-03-01T05:25:20;8.63;;;5.60;;
55601;SDS011;59921;51.332;12.410;2023-03-01T05:27:46;7.32;;;5.20;;
55601;SDS011;59921;51.332;12.410;2023-03-01T05:30:13;7.88;;;5.22;;
55601;SDS011;59921;51.332;12.410;2023-03-01T05:32:40;7.32;;;5.35;;
55601;SDS011;59921;51.332;12.410;2023-03-01T05:35:08;7.32;;;5.30;;
55601;SDS011;59921;51.332;12.410;2023-03-01T05:37:34;6.47;;;4.85;;
55601;SDS011;59921;51.332;12.410;2023-03-01T05:40:01;7.68;;;5.35;;
55601;SDS011;59921;51.332;12.410;2023-03-01T05:42:26;6.82;;;4.85;;
55601;SDS011;59921;51.332;12.410;2023-03-01T05:44:52;7.95;;;5.25;;
55601;SDS011;59921;51.332;12.410;2023-03-01T05:47:17;7.30;;;5.03;;
55601;SDS011;59921;51.332;12.410;2023-03-01T05:49:43;7.05;;;4.88;;
55601;SDS011;59921;51.332;12.410;2023-03-01T05:52:09;6.63;;;5.03;;
55601;SDS011;59921;51.332;12.410;2023-03-01T05:54:34;7.07;;;5.43;;
55601;SDS011;59921;51.332;12.410;2023-03-01T05:57:00;7.38;;;5.47;;
55601;SDS011;59921;51.332;12.410;2023-03-01T05:59:26;6.45;;;5.05;;
55601;SDS011;59921;51.332;12.410;2023-03-01T06:01:51;8.00;;;5.35;;
55601;SDS011;59921;51.332;12.410;2023-03-01T06:04:17;8.40;;;5.75;;
55601;SDS011;59921;51.332;12.410;2023-03-01T06:06:42;7.50;;;5.25;;
55601;SDS011;59921;51.332;12.410;2023-03-01T06:09:08;7.22;;;5.22;;
55601;SDS011;59921;51.332;12.410;2023-03-01T06:11:35;8.15;;;5.43;;
55601;SDS011;59921;51.332;12.410;2023-03-01T06:14:02;7.45;;;5.40;;
55601;SDS011;59921;51.332;12.410;2023-03-01T06:16:28;7.07;;;5.28;;
55601;SDS011;59921;51.332;12.410;2023-03-01T06:18:54;7.45;;;5.30;;
55601;SDS011;59921;51.332;12.410;2023-03-01T06:21:19;6.78;;;5.30;;
55601;SDS011;59921;51.332;12.410;2023-03-01T06:23:45;7.38;;;5.22;;
55601;SDS011;59921;51.332;12.410;2023-03-01T06:26:10;6.65;;;5.07;;
55601;SDS011;59921;51.332;12.410;2023-03-01T06:28:36;8.77;;;5.50;;
55601;SDS011;59921;51.332;12.410;2023-03-01T06:31:01;7.93;;;5.60;;
55601;SDS011;59921;51.332;12.410;2023-03-01T06:33:27;7.03;;;5.10;;
55601;SDS011;59921;51.332;12.410;2023-03-01T06:35:56;7.43;;;5.30;;
55601;SDS011;59921;51.332;12.410;2023-03-01T06:38:22;7.03;;;5.05;;
55601;SDS011;59921;51.332;12.410;2023-03-01T06:40:52;6.65;;;4.97;;
55601;SDS011;59921;51.332;12.410;2023-03-01T06:43:22;6.90;;;5.18;;
55601;SDS011;59921;51.332;12.410;2023-03-01T06:45:48;8.48;;;5.57;;
55601;SDS011;59921;51.332;12.410;2023-03-01T06:48:14;7.93;;;5.63;;
55601;SDS011;59921;51.332;12.410;2023-03-01T06:50:40;6.43;;;4.93;;
55601;SDS011;59921;51.332;12.410;2023-03-01T06:53:05;7.70;;;5.57;;
55601;SDS011;59921;51.332;12.410;2023-03-01T06:55:31;6.95;;;5.20;;
55601;SDS011;59921;51.332;12.410;2023-03-01T06:57:58;7.75;;;5.50;;
55601;SDS011;59921;51.332;12.410;2023-03-01T07:00:25;7.70;;;5.38;;
55601;SDS011;59921;51.332;12.410;2023-03-01T07:02:51;8.00;;;5.63;;
55601;SDS011;59921;51.332;12.410;2023-03-01T07:05:17;7.22;;;5.22;;
55601;SDS011;59921;51.332;12.410;2023-03-01T07:07:43;7.25;;;5.43;;
55601;SDS011;59921;51.332;12.410;2023-03-01T07:10:10;6.95;;;5.22;;
55601;SDS011;59921;51.332;12.410;2023-03-01T07:12:36;7.30;;;5.13;;
55601;SDS011;59921;51.332;12.410;2023-03-01T07:15:02;7.90;;;5.60;;
55601;SDS011;59921;51.332;12.410;2023-03-01T07:17:28;6.90;;;4.82;;
55601;SDS011;59921;51.332;12.410;2023-03-01T07:19:53;7.43;;;5.35;;
55601;SDS011;59921;51.332;12.410;2023-03-01T07:22:19;7.13;;;5.45;;
55601;SDS011;59921;51.332;12.410;2023-03-01T07:24:44;7.60;;;5.32;;
55601;SDS011;59921;51.332;12.410;2023-03-01T07:27:10;8.20;;;5.20;;
55601;SDS011;59921;51.332;12.410;2023-03-01T07:29:36;7.50;;;5.40;;
55601;SDS011;59921;51.332;12.410;2023-03-01T07:32:02;8.48;;;5.80;;
55601;SDS011;59921;51.332;12.410;2023-03-01T07:34:28;7.72;;;5.22;;
55601;SDS011;59921;51.332;12.410;2023-03-01T07:36:54;7.38;;;5.30;;
55601;SDS011;59921;51.332;12.410;2023-03-01T07:39:20;8.02;;;5.40;;
55601;SDS011;59921;51.332;12.410;2023-03-01T07:41:47;8.00;;;5.80;;
55601;SDS011;59921;51.332;12.410;2023-03-01T07:44:13;7.80;;;5.70;;
55601;SDS011;59921;51.332;12.410;2023-03-01T07:46:40;8.30;;;5.35;;
55601;SDS011;59921;51.332;12.410;2023-03-01T07:49:05;7.55;;;5.05;;
55601;SDS011;59921;51.332;12.410;2023-03-01T07:51:31;8.02;;;5.75;;
55601;SDS011;59921;51.332;12.410;2023-03-01T07:53:56;7.65;;;5.45;;
55601;SDS011;59921;51.332;12.410;2023-03-01T07:56:22;8.05;;;5.50;;
55601;SDS011;59921;51.332;12.410;2023-03-01T07:58:47;7.72;;;5.25;;
55601;SDS011;59921;51.332;12.410;2023-03-01T08:01:14;8.10;;;5.18;;
55601;SDS011;59921;51.332;12.410;2023-03-01T08:03:42;8.18;;;5.40;;
55601;SDS011;59921;51.332;12.410;2023-03-01T08:06:08;7.70;;;5.55;;
55601;SDS011;59921;51.332;12.410;2023-03-01T08:08:35;7.10;;;5.28;;
55601;SDS011;59921;51.332;12.410;2023-03-01T08:11:01;8.40;;;5.70;;
55601;SDS011;59921;51.332;12.410;2023-03-01T08:13:28;8.35;;;5.47;;
55601;SDS011;59921;51.332;12.410;2023-03-01T08:15:54;7.93;;;5.10;;
55601;SDS011;59921;51.332;12.410;2023-03-01T08:18:25;8.45;;;5.50;;
55601;SDS011;59921;51.332;12.410;2023-03-01T08:20:50;7.25;;;5.30;;
55601;SDS011;59921;51.332;12.410;2023-03-01T08:23:16;6.90;;;5.13;;
55601;SDS011;59921;51.332;12.410;2023-03-01T08:25:41;9.52;;;5.90;;
55601;SDS011;59921;51.332;12.410;2023-03-01T08:28:07;8.98;;;5.85;;
55601;SDS011;59921;51.332;12.410;2023-03-01T08:30:34;7.97;;;5.05;;
55601;SDS011;59921;51.332;12.410;2023-03-01T08:32:59;7.15;;;5.45;;
55601;SDS011;59921;51.332;12.410;2023-03-01T08:35:25;6.88;;;5.22;;
55601;SDS011;59921;51.332;12.410;2023-03-01T08:37:50;7.88;;;5.80;;
55601;SDS011;59921;51.332;12.410;2023-03-01T08:40:16;8.38;;;6.07;;
55601;SDS011;59921;51.332;12.410;2023-03-01T08:42:41;6.93;;;4.80;;
55601;SDS011;59921;51.332;12.410;2023-03-01T08:45:10;8.18;;;5.68;;
55601;SDS011;59921;51.332;12.410;2023-03-01T08:47:37;7.00;;;5.00;;
55601;SDS011;59921;51.332;12.410;2023-03-01T08:50:03;7.85;;;5.85;;
55601;SDS011;59921;51.332;12.410;2023-03-01T08:52:29;7.85;;;5.28;;
55601;SDS011;59921;51.332;12.410;2023-03-01T08:54:55;7.82;;;5.50;;
55601;SDS011;59921;51.332;12.410;2023-03-01T08:57:21;7.65;;;5.22;;
55601;SDS011;59921;51.332;12.410;2023-03-01T08:59:46;8.50;;;5.97;;
55601;SDS011;59921;51.332;12.410;2023-03-01T09:02:13;7.57;;;5.60;;
55601;SDS011;59921;51.332;12.410;2023-03-01T09:04:41;8.10;;;5.68;;
55601;SDS011;59921;51.332;12.410;2023-03-01T09:07:06;7.38;;;5.28;;
55601;SDS011;59921;51.332;12.410;2023-03-01T09:09:33;8.27;;;5.60;;
55601;SDS011;59921;51.332;12.410;2023-03-01T09:11:58;8.32;;;5.68;;
55601;SDS011;59921;51.332;12.410;2023-03-01T09:14:24;8.07;;;5.70;;
55601;SDS011;59921;51.332;12.410;2023-03-01T09:16:50;7.22;;;5.50;;
55601;SDS011;59921;51.332;12.410;2023-03-01T09:19:15;8.70;;;5.70;;
55601;SDS011;59921;51.332;12.410;2023-03-01T09:21:41;7.95;;;5.50;;
55601;SDS011;59921;51.332;12.410;2023-03-01T09:24:16;8.55;;;5.82;;
55601;SDS011;59921;51.332;12.410;2023-03-01T09:26:42;7.72;;;5.47;;
55601;SDS011;59921;51.332;12.410;2023-03-01T09:29:11;7.80;;;5.13;;
55601;SDS011;59921;51.332;12.410;2023-03-01T09:31:37;7.93;;;5.47;;
55601;SDS011;59921;51.332;12.410;2023-03-01T09:34:03;7.22;;;5.25;;
55601;SDS011;59921;51.332;12.410;2023-03-01T09:36:28;7.53;;;5.13;;
55601;SDS011;59921;51.332;12.410;2023-03-01T09:38:54;8.93;;;5.70;;
55601;SDS011;59921;51.332;12.410;2023-03-01T09:44:08;9.05;;;5.70;;
55601;SDS011;59921;51.332;12.410;2023-03-01T09:46:41;7.78;;;5.50;;
55601;SDS011;59921;51.332;12.410;2023-03-01T09:49:10;7.57;;;5.50;;
55601;SDS011;59921;51.332;12.410;2023-03-01T09:51:42;7.68;;;5.90;;
55601;SDS011;59921;51.332;12.410;2023-03-01T09:54:19;7.35;;;5.43;;
55601;SDS011;59921;51.332;12.410;2023-03-01T09:56:57;7.57;;;5.60;;
55601;SDS011;59921;51.332;12.410;2023-03-01T10:10:58;7.55;;;5.47;;
55601;SDS011;59921;51.332;12.410;2023-03-01T10:16:17;8.05;;;5.80;;
55601;SDS011;59921;51.332;12.410;2023-03-01T10:18:52;7.13;;;5.03;;
55601;SDS011;59921;51.332;12.410;2023-03-01T10:21:23;7.22;;;5.13;;
55601;SDS011;59921;51.332;12.410;2023-03-01T10:23:51;7.95;;;5.22;;
55601;SDS011;59921;51.332;12.410;2023-03-01T10:29:28;8.10;;;5.33;;
55601;SDS011;59921;51.332;12.410;2023-03-01T10:31:59;7.88;;;5.40;;
55601;SDS011;59921;51.332;12.410;2023-03-01T10:34:29;7.80;;;5.47;;
55601;SDS011;59921;51.332;12.410;2023-03-01T10:36:58;8.38;;;5.55;;
55601;SDS011;59921;51.332;12.410;2023-03-01T10:39:33;7.93;;;5.13;;
55601;SDS011;59921;51.332;12.410;2023-03-01T10:42:00;7.00;;;5.10;;
55601;SDS011;59921;51.332;12.410;2023-03-01T10:44:44;7.18;;;5.32;;
55601;SDS011;59921;51.332;12.410;2023-03-01T10:52:55;6.90;;;5.07;;
55601;SDS011;59921;51.332;12.410;2023-03-01T10:58:07;7.07;;;5.03;;
55601;SDS011;59921;51.332;12.410;2023-03-01T11:00:48;7.10;;;5.20;;
55601;SDS011;59921;51.332;12.410;2023-03-01T11:03:32;7.70;;;5.28;;
55601;SDS011;59921;51.332;12.410;2023-03-01T11:06:04;7.00;;;5.10;;
55601;SDS011;59921;51.332;12.410;2023-03-01T11:08:38;7.47;;;5.38;;
55601;SDS011;59921;51.332;12.410;2023-03-01T11:16:46;7.45;;;5.30;;
55601;SDS011;59921;51.332;12.410;2023-03-01T11:19:15;7.63;;;5.47;;
55601;SDS011;59921;51.332;12.410;2023-03-01T11:21:48;7.05;;;4.93;;
55601;SDS011;59921;51.332;12.410;2023-03-01T11:24:19;8.15;;;5.32;;
55601;SDS011;59921;51.332;12.410;2023-03-01T11:26:53;7.40;;;5.00;;
55601;SDS011;59921;51.332;12.410;2023-03-01T11:29:53;7.28;;;5.25;;
55601;SDS011;59921;51.332;12.410;2023-03-01T11:32:16;7.03;;;5.10;;
55601;SDS011;59921;51.332;12.410;2023-03-01T11:34:45;7.03;;;5.00;;
55601;SDS011;59921;51.332;12.410;2023-03-01T11:42:58;6.75;;;4.68;;
55601;SDS011;59921;51.332;12.410;2023-03-01T11:45:52;7.47;;;5.25;;
55601;SDS011;59921;51.332;12.410;2023-03-01T11:48:43;6.18;;;4.57;;
55601;SDS011;59921;51.332;12.410;2023-03-01T12:06:09;7.30;;;5.18;;
55601;SDS011;59921;51.332;12.410;2023-03-01T12:14:42;7.78;;;4.90;;
55601;SDS011;59921;51.332;12.410;2023-03-01T12:17:07;7.03;;;4.80;;
55601;SDS011;59921;51.332;12.410;2023-03-01T12:38:59;6.82;;;4.70;;
55601;SDS011;59921;51.332;12.410;2023-03-01T12:41:43;6.78;;;4.70;;
55601;SDS011;59921;51.332;12.410;2023-03-01T12:44:24;7.53;;;4.65;;
55601;SDS011;59921;51.332;12.410;2023-03-01T12:49:57;6.65;;;4.63;;
55601;SDS011;59921;51.332;12.410;2023-03-01T12:52:37;7.53;;;5.20;;
55601;SDS011;59921;51.332;12.410;2023-03-01T12:55:08;7.10;;;4.80;;
55601;SDS011;59921;51.332;12.410;2023-03-01T12:57:57;7.13;;;4.50;;
55601;SDS011;59921;51.332;12.410;2023-03-01T13:00:32;6.70;;;4.82;;
55601;SDS011;59921;51.332;12.410;2023-03-01T13:05:42;8.25;;;4.85;;
55601;SDS011;59921;51.332;12.410;2023-03-01T13:08:19;7.00;;;4.68;;
55601;SDS011;59921;51.332;12.410;2023-03-01T13:11:03;7.28;;;5.05;;
55601;SDS011;59921;51.332;12.410;2023-03-01T13:13:44;6.78;;;4.65;;
55601;SDS011;59921;51.332;12.410;2023-03-01T13:19:15;6.18;;;4.50;;
55601;SDS011;59921;51.332;12.410;2023-03-01T13:21:48;6.85;;;4.68;;
55601;SDS011;59921;51.332;12.410;2023-03-01T13:24:28;6.88;;;4.93;;
55601;SDS011;59921;51.332;12.410;2023-03-01T13:30:12;5.80;;;4.15;;
55601;SDS011;59921;51.332;12.410;2023-03-01T13:34:57;6.65;;;4.88;;
55601;SDS011;59921;51.332;12.410;2023-03-01T13:37:33;6.32;;;4.53;;
55601;SDS011;59921;51.332;12.410;2023-03-01T13:40:02;6.38;;;4.65;;
55601;SDS011;59921;51.332;12.410;2023-03-01T13:42:50;6.10;;;4.45;;
55601;SDS011;59921;51.332;12.410;2023-03-01T13:45:21;6.60;;;4.68;;
55601;SDS011;59921;51.332;12.410;2023-03-01T13:48:02;7.28;;;4.90;;
55601;SDS011;59921;51.332;12.410;2023-03-01T13:50:57;6.55;;;4.70;;
55601;SDS011;59921;51.332;12.410;2023-03-01T13:53:26;7.78;;;4.72;;
55601;SDS011;59921;51.332;12.410;2023-03-01T13:55:57;6.97;;;4.72;;
55601;SDS011;59921;51.332;12.410;2023-03-01T14:03:26;6.18;;;4.32;;
55601;SDS011;59921;51.332;12.410;2023-03-01T14:08:27;6.30;;;4.68;;
55601;SDS011;59921;51.332;12.410;2023-03-01T14:13:26;6.72;;;4.68;;
55601;SDS011;59921;51.332;12.410;2023-03-01T14:16:10;6.40;;;4.63;;
55601;SDS011;59921;51.332;12.410;2023-03-01T14:21:41;6.70;;;4.65;;
55601;SDS011;59921;51.332;12.410;2023-03-01T14:24:15;6.35;;;4.78;;
55601;SDS011;59921;51.332;12.410;2023-03-01T14:26:43;6.90;;;4.78;;
55601;SDS011;59921;51.332;12.410;2023-03-01T14:29:55;6.80;;;4.82;;
55601;SDS011;59921;51.332;12.410;2023-03-01T14:32:09;5.75;;;4.10;;
55601;SDS011;59921;51.332;12.410;2023-03-01T14:34:42;6.25;;;4.38;;
55601;SDS011;59921;51.332;12.410;2023-03-01T14:39:47;6.07;;;4.30;;
55601;SDS011;59921;51.332;12.410;2023-03-01T14:42:14;5.88;;;4.13;;
55601;SDS011;59921;51.332;12.410;2023-03-01T14:44:44;6.22;;;4.45;;
55601;SDS011;59921;51.332;12.410;2023-03-01T14:47:14;5.90;;;4.30;;
55601;SDS011;59921;51.332;12.410;2023-03-01T14:49:44;6.10;;;4.40;;
55601;SDS011;59921;51.332;12.410;2023-03-01T14:52:20;6.45;;;4.43;;
55601;SDS011;59921;51.332;12.410;2023-03-01T14:57:16;5.25;;;4.07;;
55601;SDS011;59921;51.332;12.410;2023-03-01T14:59:50;5.75;;;4.05;;
55601;SDS011;59921;51.332;12.410;2023-03-01T15:02:20;6.07;;;4.18;;
55601;SDS011;59921;51.332;12.410;2023-03-01T15:04:50;6.00;;;4.18;;
55601;SDS011;59921;51.332;12.410;2023-03-01T15:07:18;5.93;;;3.85;;
55601;SDS011;59921;51.332;12.410;2023-03-01T15:09:44;5.63;;;4.00;;
55601;SDS011;59921;51.332;12.410;2023-03-01T15:14:55;6.07;;;3.97;;
55601;SDS011;59921;51.332;12.410;2023-03-01T15:20:02;5.90;;;4.00;;
55601;SDS011;59921;51.332;12.410;2023-03-01T15:22:30;6.35;;;4.40;;
55601;SDS011;59921;51.332;12.410;2023-03-01T15:24:56;6.05;;;4.03;;
55601;SDS011;59921;51.332;12.410;2023-03-01T15:27:23;6.18;;;4.05;;
55601;SDS011;59921;51.332;12.410;2023-03-01T15:32:28;6.15;;;3.67;;
55601;SDS011;59921;51.332;12.410;2023-03-01T15:35:00;5.82;;;4.03;;
55601;SDS011;59921;51.332;12.410;2023-03-01T15:37:47;6.20;;;4.03;;
55601;SDS011;59921;51.332;12.410;2023-03-01T15:42:57;6.10;;;3.90;;
55601;SDS011;59921;51.332;12.410;2023-03-01T15:45:24;5.10;;;3.67;;
55601;SDS011;59921;51.332;12.410;2023-03-01T15:47:56;5.72;;;3.97;;
55601;SDS011;59921;51.332;12.410;2023-03-01T15:50:41;5.30;;;3.95;;
55601;SDS011;59921;51.332;12.410;2023-03-01T15:53:11;6.60;;;4.00;;
55601;SDS011;59921;51.332;12.410;2023-03-01T15:55:41;5.82;;;3.88;;
55601;SDS011;59921;51.332;12.410;2023-03-01T15:58:12;5.32;;;3.70;;
55601;SDS011;59921;51.332;12.410;2023-03-01T16:00:41;5.33;;;3.73;;
55601;SDS011;59921;51.332;12.410;2023-03-01T16:03:08;6.13;;;3.88;;
55601;SDS011;59921;51.332;12.410;2023-03-01T16:05:36;5.72;;;3.85;;
55601;SDS011;59921;51.332;12.410;2023-03-01T16:08:03;5.45;;;3.85;;
55601;SDS011;59921;51.332;12.410;2023-03-01T16:10:31;5.07;;;3.53;;
55601;SDS011;59921;51.332;12.410;2023-03-01T16:12:58;6.85;;;4.15;;
55601;SDS011;59921;51.332;12.410;2023-03-01T16:15:25;5.72;;;4.13;;
55601;SDS011;59921;51.332;12.410;2023-03-01T16:17:53;6.47;;;4.15;;
55601;SDS011;59921;51.332;12.410;2023-03-01T16:20:18;6.28;;;3.97;;
55601;SDS011;59921;51.332;12.410;2023-03-01T16:22:44;6.05;;;3.90;;
55601;SDS011;59921;51.332;12.410;2023-03-01T16:25:11;5.03;;;3.55;;
55601;SDS011;59921;51.332;12.410;2023-03-01T16:27:41;9.10;;;4.25;;
55601;SDS011;59921;51.332;12.410;2023-03-01T16:30:07;6.65;;;3.83;;
55601;SDS011;59921;51.332;12.410;2023-03-01T16:32:37;5.53;;;3.92;;
55601;SDS011;59921;51.332;12.410;2023-03-01T16:35:04;4.97;;;3.90;;
55601;SDS011;59921;51.332;12.410;2023-03-01T16:37:32;5.38;;;3.83;;
55601;SDS011;59921;51.332;12.410;2023-03-01T16:39:58;5.53;;;3.90;;
55601;SDS011;59921;51.332;12.410;2023-03-01T16:42:24;5.82;;;3.70;;
55601;SDS011;59921;51.332;12.410;2023-03-01T16:44:56;6.32;;;4.25;;
55601;SDS011;59921;51.332;12.410;2023-03-01T16:47:22;6.85;;;3.90;;
55601;SDS011;59921;51.332;12.410;2023-03-01T16:49:51;5.88;;;3.90;;
55601;SDS011;59921;51.332;12.410;2023-03-01T16:52:17;5.95;;;4.03;;
55601;SDS011;59921;51.332;12.410;2023-03-01T16:54:43;6.05;;;3.83;;
55601;SDS011;59921;51.332;12.410;2023-03-01T16:57:08;6.15;;;3.85;;
55601;SDS011;59921;51.332;12.410;2023-03-01T16:59:34;5.68;;;4.00;;
55601;SDS011;59921;51.332;12.410;2023-03-01T17:02:01;5.15;;;3.65;;
55601;SDS011;59921;51.332;12.410;2023-03-01T17:04:26;6.18;;;3.90;;